Aérodrome :
LOGIN :

S'inscrire | Disclaimer

   EN    FR    IT 

 










Légende :    VFR   VFR Marginal   IFR   IFR Intensif   IFR Très Intensif
Visi : 
Plafond : 
>= 8 km
>= 3000ft
5 à 8 km
1000 à 3000 ft
1500m à 5 km
500 à 1000 ft
800 à 1500m
200 à 500 ft
< 800m
< 200 ft
Symboles :   Orages  Brouillard  Fortes neiges  Fortes précipitations  Vent > 20 kt
SIGMETs :   Divers  Orages  Givrage  Turbulence  Onde Orograph.  Cendres Volcan.







- Altitude de l'aérodrome : 499 ft
- Code IATA : TLS
- Voir les cartes d'approche


LFBO - Toulouse / Blagnac

DERNIER METAR :
  • 200130Z AUTO 18003KT 5000 BR NSC 01/M00 Q1025 TEMPO 0800 BCFG VV///

METARs EXPIRÉS :
  • 200100Z AUTO 18003KT 4900 BR NSC 01/M00 Q1026 TEMPO 0800 BCFG VV///
  • 200030Z AUTO 18003KT 3700 1100 R14R/P2000 R32L/P2000 R14L/P2000 R32R/P2000 BR NSC 01/M00 Q1026 TEMPO 0800 BCFG VV///
  • 200000Z AUTO 20003KT 4000 BR NSC 01/00 Q1026 TEMPO 0800 BCFG VV///
  • 192330Z AUTO 19003KT 4400 BR NSC 01/01 Q1026 TEMPO 0800 BCFG VV///
  • 192300Z AUTO 19003KT 4400 BR NSC 01/00 Q1026 TEMPO 1200 BCFG BECMG VV///

TAF TAF LFBO
Valide du 20 à 00h jusqu'au 21 à 06h UTC


192300Z 2000/2106 VRB02KT 4000 BR NSC
PROB30
TEMPO 2000/2007 0800 BCFG VV///
BECMG 2007/2009 BKN003
BECMG 2011/2013 9999 NSW BKN008
BECMG 2013/2015 SCT010
BECMG 2017/2019 CAVOK
TEMPO 2019/2021 4000 BR
PROB40
TEMPO 2022/2106 0600 FG VV///
ATIS : +33 5 62 74 66 36
Pas de NOTAMs connus pour ce terrain.



MET'MAP, la Météo Aéronautique d'un coup d'oeil ! - Copyright ORBIFLY Décembre 2007 - Disclaimer

ORBIFLY MET'MAP TEAM :

Programmation & Développement : Alexandra Zaïnal
Conception & Développement : Baudouin d'Aumeries
Co-Programmation & Développement : Marc-Olivier Méhu
Soutien technique & logistique : Manuel Goepfert

Contact : metmap@orbifly.com




SOURCES & CREDITS :

   NOAA